sensor_id;sensor_type;location;lat;lon;timestamp;P1;durP1;ratioP1;P2;durP2;ratioP2
42668;SDS011;29384;42.028;21.388;2022-07-23T00:00:27;3.25;;;1.90;;
42668;SDS011;29384;42.028;21.388;2022-07-23T00:02:53;3.67;;;1.75;;
42668;SDS011;29384;42.028;21.388;2022-07-23T00:05:18;2.58;;;2.22;;
42668;SDS011;29384;42.028;21.388;2022-07-23T00:11:06;13.32;;;1.95;;
42668;SDS011;29384;42.028;21.388;2022-07-23T00:13:31;3.53;;;2.95;;
42668;SDS011;29384;42.028;21.388;2022-07-23T00:15:57;5.55;;;2.47;;
42668;SDS011;29384;42.028;21.388;2022-07-23T00:18:22;1.67;;;1.67;;
42668;SDS011;29384;42.028;21.388;2022-07-23T00:20:48;7.00;;;2.05;;
42668;SDS011;29384;42.028;21.388;2022-07-23T00:23:14;4.32;;;1.80;;
42668;SDS011;29384;42.028;21.388;2022-07-23T00:25:39;7.35;;;2.10;;
42668;SDS011;29384;42.028;21.388;2022-07-23T00:28:05;8.90;;;2.28;;
42668;SDS011;29384;42.028;21.388;2022-07-23T00:30:30;3.35;;;1.90;;
42668;SDS011;29384;42.028;21.388;2022-07-23T00:33:01;17.05;;;2.20;;
42668;SDS011;29384;42.028;21.388;2022-07-23T00:35:29;2.28;;;2.00;;
42668;SDS011;29384;42.028;21.388;2022-07-23T00:42:12;6.07;;;2.40;;
42668;SDS011;29384;42.028;21.388;2022-07-23T00:44:37;4.20;;;1.70;;
42668;SDS011;29384;42.028;21.388;2022-07-23T00:47:03;6.05;;;1.73;;
42668;SDS011;29384;42.028;21.388;2022-07-23T00:49:30;5.28;;;3.35;;
42668;SDS011;29384;42.028;21.388;2022-07-23T00:51:56;1.63;;;1.52;;
42668;SDS011;29384;42.028;21.388;2022-07-23T00:54:26;1.95;;;1.70;;
42668;SDS011;29384;42.028;21.388;2022-07-23T00:56:52;1.75;;;1.30;;
42668;SDS011;29384;42.028;21.388;2022-07-23T00:59:18;2.58;;;1.95;;
42668;SDS011;29384;42.028;21.388;2022-07-23T01:01:44;7.30;;;1.63;;
42668;SDS011;29384;42.028;21.388;2022-07-23T01:04:12;2.58;;;1.88;;
42668;SDS011;29384;42.028;21.388;2022-07-23T01:06:40;5.03;;;2.03;;
42668;SDS011;29384;42.028;21.388;2022-07-23T01:09:06;5.00;;;2.13;;
42668;SDS011;29384;42.028;21.388;2022-07-23T01:11:33;7.50;;;2.15;;
42668;SDS011;29384;42.028;21.388;2022-07-23T01:14:07;2.58;;;2.35;;
42668;SDS011;29384;42.028;21.388;2022-07-23T01:16:36;4.75;;;2.10;;
42668;SDS011;29384;42.028;21.388;2022-07-23T01:19:02;3.00;;;1.55;;
42668;SDS011;29384;42.028;21.388;2022-07-23T01:21:31;2.78;;;2.40;;
42668;SDS011;29384;42.028;21.388;2022-07-23T01:24:00;2.45;;;2.25;;
42668;SDS011;29384;42.028;21.388;2022-07-23T01:26:26;2.30;;;1.80;;
42668;SDS011;29384;42.028;21.388;2022-07-23T01:28:51;4.43;;;2.17;;
42668;SDS011;29384;42.028;21.388;2022-07-23T01:31:17;2.20;;;1.73;;
42668;SDS011;29384;42.028;21.388;2022-07-23T01:33:44;5.03;;;1.67;;
42668;SDS011;29384;42.028;21.388;2022-07-23T01:36:09;6.68;;;2.33;;
42668;SDS011;29384;42.028;21.388;2022-07-23T01:38:35;5.60;;;2.15;;
42668;SDS011;29384;42.028;21.388;2022-07-23T01:41:00;5.28;;;1.90;;
42668;SDS011;29384;42.028;21.388;2022-07-23T01:43:26;2.08;;;1.90;;
42668;SDS011;29384;42.028;21.388;2022-07-23T01:45:52;3.17;;;2.00;;
42668;SDS011;29384;42.028;21.388;2022-07-23T01:48:17;6.07;;;1.88;;
42668;SDS011;29384;42.028;21.388;2022-07-23T01:50:43;4.95;;;1.95;;
42668;SDS011;29384;42.028;21.388;2022-07-23T01:56:29;3.08;;;2.05;;
42668;SDS011;29384;42.028;21.388;2022-07-23T01:58:55;5.65;;;1.60;;
42668;SDS011;29384;42.028;21.388;2022-07-23T02:01:20;2.10;;;1.85;;
42668;SDS011;29384;42.028;21.388;2022-07-23T02:03:46;3.10;;;2.53;;
42668;SDS011;29384;42.028;21.388;2022-07-23T02:06:11;4.72;;;2.42;;
42668;SDS011;29384;42.028;21.388;2022-07-23T02:08:37;6.75;;;2.05;;
42668;SDS011;29384;42.028;21.388;2022-07-23T02:11:02;2.53;;;1.88;;
42668;SDS011;29384;42.028;21.388;2022-07-23T02:13:28;5.53;;;2.03;;
42668;SDS011;29384;42.028;21.388;2022-07-23T02:15:54;2.72;;;1.95;;
42668;SDS011;29384;42.028;21.388;2022-07-23T02:18:20;2.75;;;2.35;;
42668;SDS011;29384;42.028;21.388;2022-07-23T02:20:45;3.63;;;1.42;;
42668;SDS011;29384;42.028;21.388;2022-07-23T02:26:32;2.47;;;1.88;;
42668;SDS011;29384;42.028;21.388;2022-07-23T02:28:59;1.98;;;1.88;;
42668;SDS011;29384;42.028;21.388;2022-07-23T02:31:27;3.08;;;2.13;;
42668;SDS011;29384;42.028;21.388;2022-07-23T02:33:54;3.17;;;1.50;;
42668;SDS011;29384;42.028;21.388;2022-07-23T02:36:20;4.43;;;2.17;;
42668;SDS011;29384;42.028;21.388;2022-07-23T02:38:45;2.85;;;1.83;;
42668;SDS011;29384;42.028;21.388;2022-07-23T02:41:12;5.28;;;1.77;;
42668;SDS011;29384;42.028;21.388;2022-07-23T02:43:37;2.53;;;2.33;;
42668;SDS011;29384;42.028;21.388;2022-07-23T02:46:03;6.47;;;2.20;;
42668;SDS011;29384;42.028;21.388;2022-07-23T02:48:29;1.42;;;1.40;;
42668;SDS011;29384;42.028;21.388;2022-07-23T02:50:55;2.75;;;1.77;;
42668;SDS011;29384;42.028;21.388;2022-07-23T02:56:42;2.40;;;1.70;;
42668;SDS011;29384;42.028;21.388;2022-07-23T02:59:08;1.83;;;1.67;;
42668;SDS011;29384;42.028;21.388;2022-07-23T03:01:34;1.77;;;1.67;;
42668;SDS011;29384;42.028;21.388;2022-07-23T03:03:59;3.15;;;2.03;;
42668;SDS011;29384;42.028;21.388;2022-07-23T03:06:25;13.57;;;2.95;;
42668;SDS011;29384;42.028;21.388;2022-07-23T03:08:50;2.70;;;2.10;;
42668;SDS011;29384;42.028;21.388;2022-07-23T03:11:16;2.70;;;1.77;;
42668;SDS011;29384;42.028;21.388;2022-07-23T03:13:41;3.60;;;2.13;;
42668;SDS011;29384;42.028;21.388;2022-07-23T03:16:07;5.70;;;2.75;;
42668;SDS011;29384;42.028;21.388;2022-07-23T03:18:32;10.27;;;2.67;;
42668;SDS011;29384;42.028;21.388;2022-07-23T03:20:58;4.35;;;2.80;;
42668;SDS011;29384;42.028;21.388;2022-07-23T03:26:46;7.80;;;2.72;;
42668;SDS011;29384;42.028;21.388;2022-07-23T03:29:12;6.63;;;2.63;;
42668;SDS011;29384;42.028;21.388;2022-07-23T03:31:37;3.25;;;2.28;;
42668;SDS011;29384;42.028;21.388;2022-07-23T03:34:03;11.60;;;2.63;;
42668;SDS011;29384;42.028;21.388;2022-07-23T03:36:28;3.15;;;2.55;;
42668;SDS011;29384;42.028;21.388;2022-07-23T03:38:54;2.30;;;1.92;;
42668;SDS011;29384;42.028;21.388;2022-07-23T03:41:19;6.95;;;4.15;;
42668;SDS011;29384;42.028;21.388;2022-07-23T03:43:46;5.20;;;2.20;;
42668;SDS011;29384;42.028;21.388;2022-07-23T03:46:12;3.08;;;2.83;;
42668;SDS011;29384;42.028;21.388;2022-07-23T03:48:37;7.20;;;3.28;;
42668;SDS011;29384;42.028;21.388;2022-07-23T03:51:03;13.38;;;3.53;;
42668;SDS011;29384;42.028;21.388;2022-07-23T03:56:50;7.65;;;3.25;;
42668;SDS011;29384;42.028;21.388;2022-07-23T03:59:16;6.40;;;3.20;;
42668;SDS011;29384;42.028;21.388;2022-07-23T04:01:41;12.23;;;4.30;;
42668;SDS011;29384;42.028;21.388;2022-07-23T04:04:07;9.07;;;3.40;;
42668;SDS011;29384;42.028;21.388;2022-07-23T04:06:33;11.10;;;3.75;;
42668;SDS011;29384;42.028;21.388;2022-07-23T04:08:59;6.13;;;3.45;;
42668;SDS011;29384;42.028;21.388;2022-07-23T04:11:25;11.32;;;5.88;;
42668;SDS011;29384;42.028;21.388;2022-07-23T04:13:51;25.50;;;9.05;;
42668;SDS011;29384;42.028;21.388;2022-07-23T04:16:16;17.77;;;8.98;;
42668;SDS011;29384;42.028;21.388;2022-07-23T04:18:42;5.65;;;4.63;;
42668;SDS011;29384;42.028;21.388;2022-07-23T04:21:07;8.50;;;3.65;;
42668;SDS011;29384;42.028;21.388;2022-07-23T04:26:54;6.53;;;3.97;;
42668;SDS011;29384;42.028;21.388;2022-07-23T04:29:20;3.85;;;3.58;;
42668;SDS011;29384;42.028;21.388;2022-07-23T04:31:45;3.65;;;3.35;;
42668;SDS011;29384;42.028;21.388;2022-07-23T04:34:10;4.78;;;3.50;;
42668;SDS011;29384;42.028;21.388;2022-07-23T04:36:36;5.80;;;3.08;;
42668;SDS011;29384;42.028;21.388;2022-07-23T04:42:23;4.65;;;2.85;;
42668;SDS011;29384;42.028;21.388;2022-07-23T04:44:48;4.85;;;3.33;;
42668;SDS011;29384;42.028;21.388;2022-07-23T04:47:14;3.63;;;3.33;;
42668;SDS011;29384;42.028;21.388;2022-07-23T04:49:39;4.30;;;3.15;;
42668;SDS011;29384;42.028;21.388;2022-07-23T04:52:05;7.00;;;3.55;;
42668;SDS011;29384;42.028;21.388;2022-07-23T04:54:30;7.00;;;3.25;;
42668;SDS011;29384;42.028;21.388;2022-07-23T04:56:56;6.53;;;3.15;;
42668;SDS011;29384;42.028;21.388;2022-07-23T04:59:21;5.07;;;3.47;;
42668;SDS011;29384;42.028;21.388;2022-07-23T05:01:47;4.57;;;3.90;;
42668;SDS011;29384;42.028;21.388;2022-07-23T05:04:12;6.03;;;4.05;;
42668;SDS011;29384;42.028;21.388;2022-07-23T05:06:38;3.33;;;3.03;;
42668;SDS011;29384;42.028;21.388;2022-07-23T05:12:25;9.05;;;3.25;;
42668;SDS011;29384;42.028;21.388;2022-07-23T05:14:50;8.32;;;3.97;;
42668;SDS011;29384;42.028;21.388;2022-07-23T05:17:17;6.35;;;2.42;;
42668;SDS011;29384;42.028;21.388;2022-07-23T05:19:43;5.80;;;3.53;;
42668;SDS011;29384;42.028;21.388;2022-07-23T05:22:09;14.52;;;5.68;;
42668;SDS011;29384;42.028;21.388;2022-07-23T05:24:34;7.35;;;5.10;;
42668;SDS011;29384;42.028;21.388;2022-07-23T05:27:00;16.58;;;5.38;;
42668;SDS011;29384;42.028;21.388;2022-07-23T05:29:25;17.25;;;5.88;;
42668;SDS011;29384;42.028;21.388;2022-07-23T05:31:50;18.58;;;7.50;;
42668;SDS011;29384;42.028;21.388;2022-07-23T05:34:16;11.68;;;6.75;;
42668;SDS011;29384;42.028;21.388;2022-07-23T05:36:41;13.10;;;6.40;;
42668;SDS011;29384;42.028;21.388;2022-07-23T05:42:28;8.40;;;5.50;;
42668;SDS011;29384;42.028;21.388;2022-07-23T05:44:54;12.57;;;6.30;;
42668;SDS011;29384;42.028;21.388;2022-07-23T05:47:19;8.73;;;6.22;;
42668;SDS011;29384;42.028;21.388;2022-07-23T05:49:45;17.20;;;6.97;;
42668;SDS011;29384;42.028;21.388;2022-07-23T05:52:10;19.95;;;6.85;;
42668;SDS011;29384;42.028;21.388;2022-07-23T05:54:36;12.07;;;6.05;;
42668;SDS011;29384;42.028;21.388;2022-07-23T05:57:02;6.88;;;5.70;;
42668;SDS011;29384;42.028;21.388;2022-07-23T05:59:28;10.65;;;6.63;;
42668;SDS011;29384;42.028;21.388;2022-07-23T06:01:54;14.05;;;6.43;;
42668;SDS011;29384;42.028;21.388;2022-07-23T06:04:20;11.70;;;5.45;;
42668;SDS011;29384;42.028;21.388;2022-07-23T06:06:45;15.95;;;6.38;;
42668;SDS011;29384;42.028;21.388;2022-07-23T06:12:32;7.70;;;3.85;;
42668;SDS011;29384;42.028;21.388;2022-07-23T06:14:58;4.63;;;4.10;;
42668;SDS011;29384;42.028;21.388;2022-07-23T06:17:24;7.30;;;4.43;;
42668;SDS011;29384;42.028;21.388;2022-07-23T06:19:49;9.13;;;4.47;;
42668;SDS011;29384;42.028;21.388;2022-07-23T06:22:15;6.07;;;3.85;;
42668;SDS011;29384;42.028;21.388;2022-07-23T06:24:41;11.48;;;3.67;;
42668;SDS011;29384;42.028;21.388;2022-07-23T06:27:06;10.85;;;4.78;;
42668;SDS011;29384;42.028;21.388;2022-07-23T06:29:32;10.02;;;3.38;;
42668;SDS011;29384;42.028;21.388;2022-07-23T06:31:57;7.45;;;3.97;;
42668;SDS011;29384;42.028;21.388;2022-07-23T06:34:23;7.75;;;3.22;;
42668;SDS011;29384;42.028;21.388;2022-07-23T06:36:50;16.20;;;3.72;;
42668;SDS011;29384;42.028;21.388;2022-07-23T06:42:36;4.20;;;3.60;;
42668;SDS011;29384;42.028;21.388;2022-07-23T06:45:04;9.32;;;3.70;;
42668;SDS011;29384;42.028;21.388;2022-07-23T06:47:31;10.13;;;4.68;;
42668;SDS011;29384;42.028;21.388;2022-07-23T06:49:56;7.93;;;3.50;;
42668;SDS011;29384;42.028;21.388;2022-07-23T06:52:22;37.65;;;4.53;;
42668;SDS011;29384;42.028;21.388;2022-07-23T06:54:47;9.40;;;4.63;;
42668;SDS011;29384;42.028;21.388;2022-07-23T06:57:14;8.18;;;3.38;;
42668;SDS011;29384;42.028;21.388;2022-07-23T06:59:39;15.23;;;3.15;;
42668;SDS011;29384;42.028;21.388;2022-07-23T07:02:05;9.70;;;3.85;;
42668;SDS011;29384;42.028;21.388;2022-07-23T07:04:32;8.23;;;2.97;;
42668;SDS011;29384;42.028;21.388;2022-07-23T07:06:57;7.15;;;3.00;;
42668;SDS011;29384;42.028;21.388;2022-07-23T07:12:44;2.50;;;2.30;;
42668;SDS011;29384;42.028;21.388;2022-07-23T07:15:10;6.25;;;3.42;;
42668;SDS011;29384;42.028;21.388;2022-07-23T07:17:36;8.27;;;3.28;;
42668;SDS011;29384;42.028;21.388;2022-07-23T07:20:02;16.77;;;3.08;;
42668;SDS011;29384;42.028;21.388;2022-07-23T07:22:29;5.13;;;3.00;;
42668;SDS011;29384;42.028;21.388;2022-07-23T07:24:55;14.05;;;3.15;;
42668;SDS011;29384;42.028;21.388;2022-07-23T07:27:20;3.83;;;2.60;;
42668;SDS011;29384;42.028;21.388;2022-07-23T07:29:46;3.97;;;3.35;;
42668;SDS011;29384;42.028;21.388;2022-07-23T07:32:11;10.82;;;3.10;;
42668;SDS011;29384;42.028;21.388;2022-07-23T07:34:37;4.05;;;2.97;;
42668;SDS011;29384;42.028;21.388;2022-07-23T07:37:02;4.65;;;2.83;;
42668;SDS011;29384;42.028;21.388;2022-07-23T07:42:50;2.80;;;2.60;;
42668;SDS011;29384;42.028;21.388;2022-07-23T07:45:17;4.43;;;2.20;;
42668;SDS011;29384;42.028;21.388;2022-07-23T07:47:45;3.10;;;2.47;;
42668;SDS011;29384;42.028;21.388;2022-07-23T07:50:11;2.35;;;2.20;;
42668;SDS011;29384;42.028;21.388;2022-07-23T07:52:36;7.15;;;2.95;;
42668;SDS011;29384;42.028;21.388;2022-07-23T07:55:05;4.00;;;3.10;;
42668;SDS011;29384;42.028;21.388;2022-07-23T07:57:32;2.88;;;2.45;;
42668;SDS011;29384;42.028;21.388;2022-07-23T07:59:58;4.65;;;1.98;;
42668;SDS011;29384;42.028;21.388;2022-07-23T08:02:24;4.20;;;2.17;;
42668;SDS011;29384;42.028;21.388;2022-07-23T08:04:49;6.63;;;2.22;;
42668;SDS011;29384;42.028;21.388;2022-07-23T08:07:15;3.42;;;1.70;;
42668;SDS011;29384;42.028;21.388;2022-07-23T08:13:02;4.88;;;2.45;;
42668;SDS011;29384;42.028;21.388;2022-07-23T08:15:28;3.08;;;2.15;;
42668;SDS011;29384;42.028;21.388;2022-07-23T08:17:55;2.17;;;2.00;;
42668;SDS011;29384;42.028;21.388;2022-07-23T08:20:21;3.67;;;2.13;;
42668;SDS011;29384;42.028;21.388;2022-07-23T08:22:57;9.25;;;1.60;;
42668;SDS011;29384;42.028;21.388;2022-07-23T08:27:52;6.43;;;2.40;;
42668;SDS011;29384;42.028;21.388;2022-07-23T08:30:19;4.50;;;3.15;;
42668;SDS011;29384;42.028;21.388;2022-07-23T08:35:25;6.80;;;2.88;;
42668;SDS011;29384;42.028;21.388;2022-07-23T08:37:59;2.10;;;2.03;;
42668;SDS011;29384;42.028;21.388;2022-07-23T08:40:26;8.50;;;2.45;;
42668;SDS011;29384;42.028;21.388;2022-07-23T08:42:54;2.28;;;2.08;;
42668;SDS011;29384;42.028;21.388;2022-07-23T08:45:20;2.33;;;2.13;;
42668;SDS011;29384;42.028;21.388;2022-07-23T08:47:51;4.95;;;1.83;;
42668;SDS011;29384;42.028;21.388;2022-07-23T08:50:21;3.40;;;2.10;;
42668;SDS011;29384;42.028;21.388;2022-07-23T08:52:49;4.50;;;2.67;;
42668;SDS011;29384;42.028;21.388;2022-07-23T08:58:50;3.15;;;2.03;;
42668;SDS011;29384;42.028;21.388;2022-07-23T09:01:18;3.92;;;2.35;;
42668;SDS011;29384;42.028;21.388;2022-07-23T09:03:44;2.97;;;2.30;;
42668;SDS011;29384;42.028;21.388;2022-07-23T09:06:10;10.38;;;2.70;;
42668;SDS011;29384;42.028;21.388;2022-07-23T09:11:06;27.88;;;3.10;;
42668;SDS011;29384;42.028;21.388;2022-07-23T09:18:49;3.00;;;2.05;;
42668;SDS011;29384;42.028;21.388;2022-07-23T09:29:17;2.03;;;2.03;;
42668;SDS011;29384;42.028;21.388;2022-07-23T09:36:48;2.13;;;1.90;;
42668;SDS011;29384;42.028;21.388;2022-07-23T09:39:15;8.57;;;2.72;;
42668;SDS011;29384;42.028;21.388;2022-07-23T09:41:47;2.03;;;1.83;;
42668;SDS011;29384;42.028;21.388;2022-07-23T09:44:13;2.20;;;2.10;;
42668;SDS011;29384;42.028;21.388;2022-07-23T09:46:41;5.13;;;2.13;;
42668;SDS011;29384;42.028;21.388;2022-07-23T09:49:15;3.53;;;1.88;;
42668;SDS011;29384;42.028;21.388;2022-07-23T09:51:43;4.30;;;2.13;;
42668;SDS011;29384;42.028;21.388;2022-07-23T09:54:24;3.97;;;2.13;;
42668;SDS011;29384;42.028;21.388;2022-07-23T09:57:08;2.60;;;2.40;;
42668;SDS011;29384;42.028;21.388;2022-07-23T09:59:42;15.65;;;3.35;;
42668;SDS011;29384;42.028;21.388;2022-07-23T10:02:10;2.38;;;2.20;;
42668;SDS011;29384;42.028;21.388;2022-07-23T10:04:40;5.55;;;2.25;;
42668;SDS011;29384;42.028;21.388;2022-07-23T10:07:07;5.47;;;2.17;;
42668;SDS011;29384;42.028;21.388;2022-07-23T10:09:36;2.15;;;2.05;;
42668;SDS011;29384;42.028;21.388;2022-07-23T10:12:05;7.43;;;2.15;;
42668;SDS011;29384;42.028;21.388;2022-07-23T10:14:35;4.30;;;2.05;;
42668;SDS011;29384;42.028;21.388;2022-07-23T10:17:03;3.75;;;2.28;;
42668;SDS011;29384;42.028;21.388;2022-07-23T10:19:29;3.15;;;2.22;;
42668;SDS011;29384;42.028;21.388;2022-07-23T10:21:57;2.85;;;1.75;;
42668;SDS011;29384;42.028;21.388;2022-07-23T10:29:51;6.82;;;2.17;;
42668;SDS011;29384;42.028;21.388;2022-07-23T10:32:45;8.75;;;2.67;;
42668;SDS011;29384;42.028;21.388;2022-07-23T10:41:37;5.90;;;1.98;;
42668;SDS011;29384;42.028;21.388;2022-07-23T10:44:10;2.35;;;2.13;;
42668;SDS011;29384;42.028;21.388;2022-07-23T10:46:56;3.80;;;2.45;;
42668;SDS011;29384;42.028;21.388;2022-07-23T10:49:29;2.80;;;2.20;;
42668;SDS011;29384;42.028;21.388;2022-07-23T10:58:02;1.88;;;1.88;;
42668;SDS011;29384;42.028;21.388;2022-07-23T11:00:30;1.77;;;1.67;;
42668;SDS011;29384;42.028;21.388;2022-07-23T11:03:03;1.90;;;1.80;;
42668;SDS011;29384;42.028;21.388;2022-07-23T11:05:48;4.63;;;2.00;;
42668;SDS011;29384;42.028;21.388;2022-07-23T11:08:14;2.30;;;2.15;;
42668;SDS011;29384;42.028;21.388;2022-07-23T11:14:03;5.40;;;2.92;;
42668;SDS011;29384;42.028;21.388;2022-07-23T11:16:29;4.05;;;1.90;;
42668;SDS011;29384;42.028;21.388;2022-07-23T11:18:56;6.72;;;1.92;;
42668;SDS011;29384;42.028;21.388;2022-07-23T11:24:08;1.80;;;1.70;;
42668;SDS011;29384;42.028;21.388;2022-07-23T11:32:04;3.67;;;2.25;;
42668;SDS011;29384;42.028;21.388;2022-07-23T11:34:40;2.05;;;1.83;;
42668;SDS011;29384;42.028;21.388;2022-07-23T11:37:15;6.82;;;2.53;;
42668;SDS011;29384;42.028;21.388;2022-07-23T11:40:03;4.95;;;1.77;;
42668;SDS011;29384;42.028;21.388;2022-07-23T11:42:40;7.32;;;2.40;;
42668;SDS011;29384;42.028;21.388;2022-07-23T11:45:37;3.75;;;2.25;;
42668;SDS011;29384;42.028;21.388;2022-07-23T11:48:08;6.88;;;2.20;;
42668;SDS011;29384;42.028;21.388;2022-07-23T11:50:35;22.50;;;2.75;;
42668;SDS011;29384;42.028;21.388;2022-07-23T11:53:02;2.70;;;2.50;;
42668;SDS011;29384;42.028;21.388;2022-07-23T11:55:28;13.23;;;1.88;;
42668;SDS011;29384;42.028;21.388;2022-07-23T11:57:55;8.07;;;2.97;;
42668;SDS011;29384;42.028;21.388;2022-07-23T12:00:22;3.83;;;2.00;;
42668;SDS011;29384;42.028;21.388;2022-07-23T12:02:54;4.45;;;2.72;;
42668;SDS011;29384;42.028;21.388;2022-07-23T12:05:25;3.67;;;1.73;;
42668;SDS011;29384;42.028;21.388;2022-07-23T12:07:56;5.05;;;1.98;;
42668;SDS011;29384;42.028;21.388;2022-07-23T12:10:29;7.95;;;2.75;;
42668;SDS011;29384;42.028;21.388;2022-07-23T12:13:00;3.08;;;2.05;;
42668;SDS011;29384;42.028;21.388;2022-07-23T12:15:29;5.22;;;1.25;;
42668;SDS011;29384;42.028;21.388;2022-07-23T12:17:57;3.72;;;2.08;;
42668;SDS011;29384;42.028;21.388;2022-07-23T12:20:25;3.55;;;2.03;;
42668;SDS011;29384;42.028;21.388;2022-07-23T12:22:57;5.72;;;1.85;;
42668;SDS011;29384;42.028;21.388;2022-07-23T12:25:27;4.90;;;2.87;;
42668;SDS011;29384;42.028;21.388;2022-07-23T12:28:13;5.13;;;2.92;;
42668;SDS011;29384;42.028;21.388;2022-07-23T12:30:47;34.33;;;2.50;;
42668;SDS011;29384;42.028;21.388;2022-07-23T12:33:20;7.60;;;2.25;;
42668;SDS011;29384;42.028;21.388;2022-07-23T12:35:52;6.93;;;2.05;;
42668;SDS011;29384;42.028;21.388;2022-07-23T12:38:20;8.48;;;1.50;;
42668;SDS011;29384;42.028;21.388;2022-07-23T12:43:26;9.27;;;3.10;;
42668;SDS011;29384;42.028;21.388;2022-07-23T12:45:55;9.10;;;2.67;;
42668;SDS011;29384;42.028;21.388;2022-07-23T12:48:35;8.63;;;2.67;;
42668;SDS011;29384;42.028;21.388;2022-07-23T12:51:06;6.47;;;2.85;;
42668;SDS011;29384;42.028;21.388;2022-07-23T12:53:41;2.05;;;1.83;;
42668;SDS011;29384;42.028;21.388;2022-07-23T12:56:09;7.60;;;2.13;;
42668;SDS011;29384;42.028;21.388;2022-07-23T12:58:44;3.00;;;2.20;;
42668;SDS011;29384;42.028;21.388;2022-07-23T13:03:57;4.32;;;2.58;;
42668;SDS011;29384;42.028;21.388;2022-07-23T13:06:27;5.25;;;2.35;;
42668;SDS011;29384;42.028;21.388;2022-07-23T13:12:49;4.13;;;2.75;;
42668;SDS011;29384;42.028;21.388;2022-07-23T13:15:15;7.35;;;2.38;;
42668;SDS011;29384;42.028;21.388;2022-07-23T13:17:40;2.72;;;2.13;;
42668;SDS011;29384;42.028;21.388;2022-07-23T13:20:06;2.55;;;2.35;;
42668;SDS011;29384;42.028;21.388;2022-07-23T13:22:32;8.60;;;3.05;;
42668;SDS011;29384;42.028;21.388;2022-07-23T13:28:19;6.72;;;2.33;;
42668;SDS011;29384;42.028;21.388;2022-07-23T13:30:46;3.33;;;2.53;;
42668;SDS011;29384;42.028;21.388;2022-07-23T13:33:14;3.33;;;1.95;;
42668;SDS011;29384;42.028;21.388;2022-07-23T13:35:44;6.47;;;2.53;;
42668;SDS011;29384;42.028;21.388;2022-07-23T13:38:09;3.45;;;1.80;;
42668;SDS011;29384;42.028;21.388;2022-07-23T13:43:56;1.58;;;1.48;;
42668;SDS011;29384;42.028;21.388;2022-07-23T13:46:23;2.80;;;1.88;;
42668;SDS011;29384;42.028;21.388;2022-07-23T13:48:48;2.63;;;2.33;;
42668;SDS011;29384;42.028;21.388;2022-07-23T13:51:14;4.55;;;1.80;;
42668;SDS011;29384;42.028;21.388;2022-07-23T13:53:41;4.95;;;2.50;;
42668;SDS011;29384;42.028;21.388;2022-07-23T13:59:27;2.83;;;2.25;;
42668;SDS011;29384;42.028;21.388;2022-07-23T14:01:53;3.45;;;2.13;;
42668;SDS011;29384;42.028;21.388;2022-07-23T14:04:19;3.95;;;2.85;;
42668;SDS011;29384;42.028;21.388;2022-07-23T14:06:46;3.35;;;2.55;;
42668;SDS011;29384;42.028;21.388;2022-07-23T14:09:11;4.90;;;1.98;;
42668;SDS011;29384;42.028;21.388;2022-07-23T14:14:58;3.65;;;2.30;;
42668;SDS011;29384;42.028;21.388;2022-07-23T14:17:24;2.28;;;1.85;;
42668;SDS011;29384;42.028;21.388;2022-07-23T14:19:50;3.20;;;2.65;;
42668;SDS011;29384;42.028;21.388;2022-07-23T14:22:15;2.28;;;2.17;;
42668;SDS011;29384;42.028;21.388;2022-07-23T14:24:41;2.63;;;2.08;;
42668;SDS011;29384;42.028;21.388;2022-07-23T14:27:07;3.83;;;2.97;;
42668;SDS011;29384;42.028;21.388;2022-07-23T14:29:33;2.67;;;1.80;;
42668;SDS011;29384;42.028;21.388;2022-07-23T14:31:59;8.18;;;2.47;;
42668;SDS011;29384;42.028;21.388;2022-07-23T14:34:24;3.13;;;2.05;;
42668;SDS011;29384;42.028;21.388;2022-07-23T14:36:51;6.22;;;2.17;;
42668;SDS011;29384;42.028;21.388;2022-07-23T14:39:17;4.43;;;1.48;;
42668;SDS011;29384;42.028;21.388;2022-07-23T14:45:05;4.07;;;1.98;;
42668;SDS011;29384;42.028;21.388;2022-07-23T14:47:31;4.13;;;2.28;;
42668;SDS011;29384;42.028;21.388;2022-07-23T14:49:57;10.75;;;1.83;;
42668;SDS011;29384;42.028;21.388;2022-07-23T14:52:22;2.30;;;1.85;;
42668;SDS011;29384;42.028;21.388;2022-07-23T14:54:47;6.63;;;2.17;;
42668;SDS011;29384;42.028;21.388;2022-07-23T14:57:13;12.68;;;2.75;;
42668;SDS011;29384;42.028;21.388;2022-07-23T14:59:39;5.30;;;2.03;;
42668;SDS011;29384;42.028;21.388;2022-07-23T15:02:07;2.78;;;2.40;;
42668;SDS011;29384;42.028;21.388;2022-07-23T15:04:32;1.67;;;1.58;;
42668;SDS011;29384;42.028;21.388;2022-07-23T15:06:58;1.92;;;1.65;;
42668;SDS011;29384;42.028;21.388;2022-07-23T15:09:24;2.67;;;2.38;;
42668;SDS011;29384;42.028;21.388;2022-07-23T15:15:10;5.80;;;2.10;;
42668;SDS011;29384;42.028;21.388;2022-07-23T15:17:36;5.47;;;2.17;;
42668;SDS011;29384;42.028;21.388;2022-07-23T15:20:01;4.82;;;2.40;;
42668;SDS011;29384;42.028;21.388;2022-07-23T15:22:27;3.25;;;1.90;;
42668;SDS011;29384;42.028;21.388;2022-07-23T15:24:53;1.70;;;1.33;;
42668;SDS011;29384;42.028;21.388;2022-07-23T15:27:18;2.88;;;1.80;;
42668;SDS011;29384;42.028;21.388;2022-07-23T15:29:44;12.38;;;3.35;;
42668;SDS011;29384;42.028;21.388;2022-07-23T15:32:10;8.43;;;2.10;;
42668;SDS011;29384;42.028;21.388;2022-07-23T15:34:37;4.00;;;2.28;;
42668;SDS011;29384;42.028;21.388;2022-07-23T15:37:03;4.70;;;2.03;;
42668;SDS011;29384;42.028;21.388;2022-07-23T15:39:31;4.85;;;2.42;;
42668;SDS011;29384;42.028;21.388;2022-07-23T15:45:21;19.13;;;3.85;;
42668;SDS011;29384;42.028;21.388;2022-07-23T15:47:47;30.17;;;2.75;;
42668;SDS011;29384;42.028;21.388;2022-07-23T15:50:14;3.95;;;2.70;;
42668;SDS011;29384;42.028;21.388;2022-07-23T15:52:40;5.97;;;2.55;;
42668;SDS011;29384;42.028;21.388;2022-07-23T15:55:06;5.82;;;2.97;;
42668;SDS011;29384;42.028;21.388;2022-07-23T15:57:32;2.75;;;2.47;;
42668;SDS011;29384;42.028;21.388;2022-07-23T15:59:58;3.38;;;2.03;;
42668;SDS011;29384;42.028;21.388;2022-07-23T16:02:24;6.00;;;2.28;;
42668;SDS011;29384;42.028;21.388;2022-07-23T16:04:50;5.82;;;1.60;;
42668;SDS011;29384;42.028;21.388;2022-07-23T16:07:17;3.13;;;2.10;;
42668;SDS011;29384;42.028;21.388;2022-07-23T16:09:43;3.42;;;1.70;;
42668;SDS011;29384;42.028;21.388;2022-07-23T16:15:30;4.05;;;2.63;;
42668;SDS011;29384;42.028;21.388;2022-07-23T16:17:56;11.38;;;2.85;;
42668;SDS011;29384;42.028;21.388;2022-07-23T16:20:22;3.88;;;2.30;;
42668;SDS011;29384;42.028;21.388;2022-07-23T16:22:48;2.63;;;1.80;;
42668;SDS011;29384;42.028;21.388;2022-07-23T16:25:13;6.63;;;2.63;;
42668;SDS011;29384;42.028;21.388;2022-07-23T16:27:39;5.15;;;2.20;;
42668;SDS011;29384;42.028;21.388;2022-07-23T16:30:06;11.90;;;3.33;;
42668;SDS011;29384;42.028;21.388;2022-07-23T16:32:34;3.65;;;2.45;;
42668;SDS011;29384;42.028;21.388;2022-07-23T16:34:59;2.42;;;2.33;;
42668;SDS011;29384;42.028;21.388;2022-07-23T16:37:25;4.60;;;2.13;;
42668;SDS011;29384;42.028;21.388;2022-07-23T16:39:51;16.75;;;2.00;;
42668;SDS011;29384;42.028;21.388;2022-07-23T16:45:38;3.75;;;2.72;;
42668;SDS011;29384;42.028;21.388;2022-07-23T16:48:04;4.95;;;3.28;;
42668;SDS011;29384;42.028;21.388;2022-07-23T16:50:29;6.95;;;3.17;;
42668;SDS011;29384;42.028;21.388;2022-07-23T16:52:55;5.88;;;2.63;;
42668;SDS011;29384;42.028;21.388;2022-07-23T16:55:21;5.32;;;2.47;;
42668;SDS011;29384;42.028;21.388;2022-07-23T16:57:46;7.63;;;2.33;;
42668;SDS011;29384;42.028;21.388;2022-07-23T17:00:12;3.60;;;2.25;;
42668;SDS011;29384;42.028;21.388;2022-07-23T17:02:38;6.72;;;1.92;;
42668;SDS011;29384;42.028;21.388;2022-07-23T17:05:04;3.47;;;3.17;;